createdAt,value
2019-02-14T00:00:42.044Z,7.55
2019-02-14T00:01:47.391Z,6.85
2019-02-14T00:02:51.205Z,7.40
2019-02-14T00:03:55.261Z,7.25
2019-02-14T00:04:59.540Z,6.87
2019-02-14T00:06:03.508Z,6.87
2019-02-14T00:07:08.097Z,7.50
2019-02-14T00:08:12.304Z,6.95
2019-02-14T00:09:16.118Z,6.85
2019-02-14T00:10:20.257Z,6.53
2019-02-14T00:11:24.083Z,6.10
2019-02-14T00:12:27.899Z,5.90
2019-02-14T00:13:32.024Z,6.35
2019-02-14T00:14:35.989Z,6.20
2019-02-14T00:15:40.450Z,5.87
2019-02-14T00:16:44.688Z,6.20
2019-02-14T00:17:50.669Z,6.05
2019-02-14T00:18:54.726Z,6.37
2019-02-14T00:19:58.979Z,6.08
2019-02-14T00:21:02.964Z,6.00
2019-02-14T00:22:06.855Z,5.97
2019-02-14T00:23:10.663Z,5.67
2019-02-14T00:24:15.350Z,5.75
2019-02-14T00:25:19.175Z,5.53
2019-02-14T00:26:23.291Z,5.60
2019-02-14T00:27:27.464Z,6.22
2019-02-14T00:28:31.456Z,6.10
2019-02-14T00:29:35.891Z,6.15
2019-02-14T00:30:40.350Z,6.10
2019-02-14T00:31:44.525Z,5.85
2019-02-14T00:32:48.834Z,5.80
2019-02-14T00:33:52.637Z,5.90
2019-02-14T00:34:57.004Z,5.60
2019-02-14T00:36:01.307Z,5.75
2019-02-14T00:37:05.487Z,6.37
2019-02-14T00:38:09.289Z,5.60
2019-02-14T00:39:13.424Z,5.65
2019-02-14T00:40:17.483Z,5.85
2019-02-14T00:41:21.375Z,5.37
2019-02-14T00:42:25.191Z,5.95
2019-02-14T00:43:29.242Z,6.08
2019-02-14T00:44:33.130Z,6.37
2019-02-14T00:45:37.177Z,5.95
2019-02-14T00:46:41.237Z,6.05
2019-02-14T00:47:45.437Z,6.20
2019-02-14T00:48:49.245Z,6.65
2019-02-14T00:49:53.129Z,6.78
2019-02-14T00:50:56.944Z,6.30
2019-02-14T00:52:01.275Z,6.37
2019-02-14T00:53:05.081Z,5.87
2019-02-14T00:54:09.213Z,5.95
2019-02-14T00:55:13.578Z,6.25
2019-02-14T00:56:17.708Z,6.60
2019-02-14T00:57:21.842Z,6.50
2019-02-14T00:58:25.640Z,6.37
2019-02-14T00:59:29.701Z,6.30
2019-02-14T01:00:33.913Z,5.80
2019-02-14T01:01:38.050Z,6.83
2019-02-14T01:02:42.914Z,6.62
2019-02-14T01:03:46.716Z,6.15
2019-02-14T01:04:51.009Z,5.75
2019-02-14T01:05:54.901Z,5.70
2019-02-14T01:06:58.893Z,5.90
2019-02-14T01:08:03.051Z,5.97
2019-02-14T01:09:07.527Z,6.17
2019-02-14T01:10:11.825Z,5.85
2019-02-14T01:11:16.551Z,5.75
2019-02-14T01:12:20.652Z,5.80
2019-02-14T01:13:24.535Z,5.97
2019-02-14T01:14:28.352Z,6.03
2019-02-14T01:15:32.229Z,6.40
2019-02-14T01:16:36.275Z,6.58
2019-02-14T01:17:40.152Z,6.72
2019-02-14T01:18:44.107Z,6.40
2019-02-14T01:19:48.317Z,6.58
2019-02-14T01:20:52.789Z,7.00
2019-02-14T01:21:56.596Z,7.00
2019-02-14T01:23:00.736Z,7.12
2019-02-14T01:24:04.896Z,7.17
2019-02-14T01:25:09.030Z,6.53
2019-02-14T01:26:12.849Z,7.15
2019-02-14T01:27:16.975Z,6.90
2019-02-14T01:28:20.809Z,6.92
2019-02-14T01:29:24.690Z,6.67
2019-02-14T01:30:28.649Z,6.80
2019-02-14T01:31:32.770Z,6.40
2019-02-14T01:32:37.386Z,6.75
2019-02-14T01:33:41.267Z,9.03
2019-02-14T01:34:45.080Z,8.70
2019-02-14T01:35:48.888Z,9.45
2019-02-14T01:36:53.289Z,6.40
2019-02-14T01:37:57.775Z,6.95
2019-02-14T01:39:01.887Z,7.30
2019-02-14T01:40:06.207Z,7.55
2019-02-14T01:41:10.022Z,6.78
2019-02-14T01:42:14.121Z,7.42
2019-02-14T01:43:18.361Z,7.35
2019-02-14T01:44:22.431Z,7.15
2019-02-14T01:45:26.387Z,7.33
2019-02-14T01:46:30.505Z,7.55
2019-02-14T01:47:34.936Z,7.10
2019-02-14T01:48:39.041Z,6.85
2019-02-14T01:49:43.098Z,7.75
2019-02-14T01:50:46.910Z,7.10
2019-02-14T01:51:51.145Z,7.33
2019-02-14T01:52:54.949Z,7.33
2019-02-14T01:53:58.780Z,7.67
2019-02-14T01:55:02.943Z,7.58
2019-02-14T01:56:06.821Z,8.20
2019-02-14T01:57:10.630Z,7.70
2019-02-14T01:58:14.470Z,7.25
2019-02-14T01:59:18.641Z,7.15
2019-02-14T02:00:22.603Z,7.55
2019-02-14T02:01:26.576Z,8.00
2019-02-14T02:02:30.466Z,8.10
2019-02-14T02:03:34.289Z,7.03
2019-02-14T02:04:38.093Z,7.62
2019-02-14T02:05:50.411Z,9.08
2019-02-14T02:06:47.506Z,8.10
2019-02-14T02:07:51.385Z,8.70
2019-02-14T02:08:55.286Z,10.72
2019-02-14T02:09:59.274Z,12.03
2019-02-14T02:11:03.804Z,9.83
2019-02-14T02:12:08.082Z,8.58
2019-02-14T02:13:11.964Z,7.85
2019-02-14T02:14:16.258Z,7.12
2019-02-14T02:15:20.067Z,7.25
2019-02-14T02:16:24.290Z,6.83
2019-02-14T02:17:29.102Z,5.97
2019-02-14T02:18:33.318Z,6.40
2019-02-14T02:19:37.848Z,5.65
2019-02-14T02:20:41.736Z,6.08
2019-02-14T02:21:45.633Z,6.47
2019-02-14T02:22:49.860Z,6.17
2019-02-14T02:23:53.986Z,6.40
2019-02-14T02:24:57.884Z,6.50
2019-02-14T02:26:01.694Z,6.30
2019-02-14T02:27:05.954Z,6.42
2019-02-14T02:28:10.149Z,6.67
2019-02-14T02:29:14.051Z,6.03
2019-02-14T02:30:17.934Z,5.83
2019-02-14T02:31:22.043Z,5.45
2019-02-14T02:32:25.870Z,5.78
2019-02-14T02:33:30.008Z,6.40
2019-02-14T02:34:34.461Z,6.17
2019-02-14T02:35:38.665Z,5.83
2019-02-14T02:36:42.467Z,5.70
2019-02-14T02:37:46.975Z,6.08
2019-02-14T02:38:51.031Z,7.28
2019-02-14T02:39:54.846Z,6.30
2019-02-14T02:40:59.095Z,5.95
2019-02-14T02:42:02.906Z,6.78
2019-02-14T02:43:06.781Z,6.42
2019-02-14T02:44:10.667Z,6.12
2019-02-14T02:45:14.732Z,7.08
2019-02-14T02:46:18.537Z,7.15
2019-02-14T02:47:22.457Z,7.00
2019-02-14T02:48:26.522Z,6.78
2019-02-14T02:49:30.321Z,7.33
2019-02-14T02:50:34.147Z,7.33
2019-02-14T02:51:38.332Z,6.58
2019-02-14T02:52:42.583Z,7.67
2019-02-14T02:53:46.781Z,8.53
2019-02-14T02:54:50.881Z,8.25
2019-02-14T02:55:54.695Z,8.23
2019-02-14T02:56:58.492Z,7.58
2019-02-14T02:58:02.776Z,7.15
2019-02-14T02:59:06.902Z,6.75
2019-02-14T03:00:13.964Z,7.40
2019-02-14T03:01:17.914Z,7.90
2019-02-14T03:02:22.314Z,8.00
2019-02-14T03:03:26.357Z,8.08
2019-02-14T03:04:30.409Z,8.80
2019-02-14T03:05:34.298Z,7.92
2019-02-14T03:06:38.380Z,7.67
2019-02-14T03:07:42.555Z,7.10
2019-02-14T03:08:46.357Z,7.35
2019-02-14T03:09:50.180Z,6.97
2019-02-14T03:10:54.239Z,7.60
2019-02-14T03:11:58.087Z,6.95
2019-02-14T03:13:02.130Z,7.25
2019-02-14T03:14:06.078Z,7.30
2019-02-14T03:15:11.359Z,6.90
2019-02-14T03:16:15.235Z,7.10
2019-02-14T03:17:19.273Z,7.22
2019-02-14T03:18:23.387Z,7.83
2019-02-14T03:19:27.194Z,8.20
2019-02-14T03:20:31.256Z,7.33
2019-02-14T03:21:35.060Z,8.68
2019-02-14T03:22:38.867Z,10.58
2019-02-14T03:23:42.671Z,12.23
2019-02-14T03:24:46.734Z,14.07
2019-02-14T03:25:50.549Z,19.73
2019-02-14T03:26:54.353Z,15.23
2019-02-14T03:27:58.161Z,12.00
2019-02-14T03:29:02.210Z,9.50
2019-02-14T03:30:06.683Z,8.63
2019-02-14T03:31:10.755Z,7.85
2019-02-14T03:32:14.559Z,6.67
2019-02-14T03:33:18.439Z,6.47
2019-02-14T03:34:22.285Z,6.35
2019-02-14T03:35:26.163Z,5.33
2019-02-14T03:36:30.062Z,5.67
2019-02-14T03:37:34.213Z,5.62
2019-02-14T03:38:38.268Z,6.30
2019-02-14T03:39:42.504Z,9.13
2019-02-14T03:40:46.710Z,11.53
2019-02-14T03:41:50.922Z,9.58
2019-02-14T03:42:55.077Z,8.98
2019-02-14T03:43:59.184Z,8.43
2019-02-14T03:45:03.066Z,8.30
2019-02-14T03:46:06.958Z,8.38
2019-02-14T03:47:10.835Z,8.38
2019-02-14T03:48:14.643Z,7.28
2019-02-14T03:49:19.025Z,7.70
2019-02-14T03:50:23.334Z,6.70
2019-02-14T03:51:27.681Z,7.65
2019-02-14T03:52:31.848Z,7.80
2019-02-14T03:53:35.956Z,8.20
2019-02-14T03:54:40.177Z,7.78
2019-02-14T03:55:44.305Z,8.08
2019-02-14T03:56:48.193Z,8.15
2019-02-14T03:57:52.000Z,7.78
2019-02-14T03:58:55.807Z,9.25
2019-02-14T03:59:59.614Z,8.15
2019-02-14T04:01:03.858Z,10.03
2019-02-14T04:02:07.912Z,8.58
2019-02-14T04:03:11.970Z,8.50
2019-02-14T04:04:15.754Z,8.70
2019-02-14T04:05:19.637Z,7.90
2019-02-14T04:06:27.532Z,7.87
2019-02-14T04:07:28.970Z,8.03
2019-02-14T04:08:32.846Z,8.63
2019-02-14T04:09:37.095Z,8.38
2019-02-14T04:10:40.968Z,9.28
2019-02-14T04:11:44.795Z,9.38
2019-02-14T04:12:48.849Z,8.38
2019-02-14T04:13:52.907Z,8.15
2019-02-14T04:14:56.711Z,7.80
2019-02-14T04:16:01.027Z,8.65
2019-02-14T04:17:05.085Z,8.45
2019-02-14T04:18:09.423Z,8.45
2019-02-14T04:19:13.550Z,8.63
2019-02-14T04:20:17.360Z,8.85
2019-02-14T04:21:21.173Z,10.18
2019-02-14T04:22:25.238Z,9.65
2019-02-14T04:23:29.081Z,11.60
2019-02-14T04:24:33.127Z,12.60
2019-02-14T04:25:37.169Z,9.43
2019-02-14T04:26:40.978Z,7.12
2019-02-14T04:27:44.793Z,6.08
2019-02-14T04:28:48.598Z,6.50
2019-02-14T04:29:52.403Z,9.60
2019-02-14T04:30:56.202Z,8.38
2019-02-14T04:32:00.518Z,7.53
2019-02-14T04:33:04.412Z,7.60
2019-02-14T04:34:08.474Z,8.38
2019-02-14T04:35:12.644Z,8.10
2019-02-14T04:36:16.695Z,8.08
2019-02-14T04:37:20.748Z,7.95
2019-02-14T04:38:24.917Z,6.60
2019-02-14T04:39:28.731Z,7.70
2019-02-14T04:40:33.819Z,7.25
2019-02-14T04:41:37.753Z,8.30
2019-02-14T04:42:41.982Z,9.28
2019-02-14T04:43:46.331Z,10.03
2019-02-14T04:44:50.991Z,10.30
2019-02-14T04:45:54.886Z,10.80
2019-02-14T04:46:58.692Z,10.35
2019-02-14T04:48:02.906Z,8.55
2019-02-14T04:49:07.406Z,8.08
2019-02-14T04:50:11.583Z,7.55
2019-02-14T04:51:16.085Z,7.28
2019-02-14T04:52:19.964Z,7.55
2019-02-14T04:53:23.790Z,7.40
2019-02-14T04:54:28.504Z,6.95
2019-02-14T04:55:32.460Z,7.03
2019-02-14T04:56:36.287Z,7.03
2019-02-14T04:57:40.245Z,6.65
2019-02-14T04:58:44.408Z,7.05
2019-02-14T04:59:48.514Z,8.00
2019-02-14T05:00:52.575Z,8.08
2019-02-14T05:01:56.570Z,10.78
2019-02-14T05:03:00.758Z,13.00
2019-02-14T05:04:04.923Z,10.50
2019-02-14T05:05:08.947Z,10.80
2019-02-14T05:06:12.746Z,16.27
2019-02-14T05:07:16.990Z,19.00
2019-02-14T05:08:20.820Z,15.98
2019-02-14T05:09:24.931Z,19.27
2019-02-14T05:10:29.092Z,18.50
2019-02-14T05:11:33.434Z,13.72
2019-02-14T05:12:37.428Z,14.60
2019-02-14T05:13:41.493Z,15.68
2019-02-14T05:14:45.312Z,16.48
2019-02-14T05:15:49.383Z,13.78
2019-02-14T05:16:53.196Z,13.93
2019-02-14T05:17:57.302Z,11.90
2019-02-14T05:19:01.154Z,11.83
2019-02-14T05:20:05.572Z,11.97
2019-02-14T05:21:09.382Z,10.90
2019-02-14T05:22:13.517Z,11.33
2019-02-14T05:23:18.068Z,10.45
2019-02-14T05:24:22.172Z,10.95
2019-02-14T05:25:26.055Z,11.30
2019-02-14T05:26:30.170Z,11.75
2019-02-14T05:27:33.982Z,9.28
2019-02-14T05:28:37.787Z,9.13
2019-02-14T05:29:41.607Z,12.50
2019-02-14T05:30:45.772Z,9.18
2019-02-14T05:31:49.605Z,10.38
2019-02-14T05:32:53.411Z,17.95
2019-02-14T05:33:57.226Z,27.58
2019-02-14T05:35:01.366Z,18.05
2019-02-14T05:36:05.180Z,15.50
2019-02-14T05:37:09.138Z,14.40
2019-02-14T05:38:13.048Z,14.28
2019-02-14T05:39:16.859Z,13.58
2019-02-14T05:40:20.932Z,14.40
2019-02-14T05:41:24.746Z,14.28
2019-02-14T05:42:28.555Z,13.28
2019-02-14T05:43:32.926Z,12.90
2019-02-14T05:44:37.375Z,13.13
2019-02-14T05:45:41.546Z,12.43
2019-02-14T05:46:45.682Z,12.25
2019-02-14T05:47:49.627Z,12.00
2019-02-14T05:48:53.444Z,15.30
2019-02-14T05:49:57.272Z,19.15
2019-02-14T05:51:01.155Z,18.10
2019-02-14T05:52:05.050Z,18.55
2019-02-14T05:53:09.123Z,14.78
2019-02-14T05:54:12.934Z,13.75
2019-02-14T05:55:16.835Z,13.32
2019-02-14T05:56:20.979Z,13.50
2019-02-14T05:57:27.305Z,13.30
2019-02-14T05:58:31.469Z,11.88
2019-02-14T05:59:35.286Z,12.35
2019-02-14T06:00:39.351Z,13.13
2019-02-14T06:01:43.411Z,12.90
2019-02-14T06:02:47.394Z,12.88
2019-02-14T06:03:51.430Z,12.00
2019-02-14T06:04:55.231Z,11.48
2019-02-14T06:05:59.070Z,11.50
2019-02-14T06:07:03.155Z,11.75
2019-02-14T06:08:06.957Z,11.55
2019-02-14T06:09:10.765Z,11.53
2019-02-14T06:10:14.662Z,11.83
2019-02-14T06:11:18.887Z,11.55
2019-02-14T06:12:22.696Z,10.60
2019-02-14T06:13:26.755Z,10.80
2019-02-14T06:14:30.561Z,12.43
2019-02-14T06:15:34.388Z,12.98
2019-02-14T06:16:38.266Z,13.32
2019-02-14T06:17:42.652Z,13.78
2019-02-14T06:18:46.534Z,15.45
2019-02-14T06:19:50.591Z,17.52
2019-02-14T06:20:54.415Z,14.18
2019-02-14T06:21:58.504Z,13.25
2019-02-14T06:23:02.273Z,14.68
2019-02-14T06:24:06.330Z,13.10
2019-02-14T06:25:10.445Z,11.88
2019-02-14T06:26:14.513Z,13.38
2019-02-14T06:27:18.460Z,12.85
2019-02-14T06:28:22.277Z,12.90
2019-02-14T06:29:26.096Z,11.85
2019-02-14T06:30:29.926Z,13.93
2019-02-14T06:31:33.840Z,15.08
2019-02-14T06:32:37.930Z,13.98
2019-02-14T06:33:41.819Z,14.20
2019-02-14T06:34:45.634Z,14.73
2019-02-14T06:35:49.514Z,16.10
2019-02-14T06:36:53.684Z,14.10
2019-02-14T06:37:57.887Z,14.63
2019-02-14T06:39:01.753Z,13.85
2019-02-14T06:40:06.894Z,12.15
2019-02-14T06:41:11.481Z,13.13
2019-02-14T06:42:15.774Z,13.00
2019-02-14T06:43:19.595Z,12.82
2019-02-14T06:44:23.670Z,13.53
2019-02-14T06:45:27.485Z,15.30
2019-02-14T06:46:31.313Z,14.63
2019-02-14T06:47:35.129Z,15.38
2019-02-14T06:48:39.217Z,14.85
2019-02-14T06:49:43.390Z,13.53
2019-02-14T06:50:47.540Z,17.52
2019-02-14T06:51:51.646Z,16.73
2019-02-14T06:52:55.738Z,17.57
2019-02-14T06:53:59.564Z,16.55
2019-02-14T06:55:03.726Z,11.68
2019-02-14T06:56:07.789Z,11.90
2019-02-14T06:57:11.610Z,12.50
2019-02-14T06:58:15.687Z,13.28
2019-02-14T06:59:20.298Z,13.88
2019-02-14T07:00:24.113Z,18.37
2019-02-14T07:01:28.273Z,16.23
2019-02-14T07:02:32.405Z,14.75
2019-02-14T07:03:36.212Z,16.40
2019-02-14T07:04:40.349Z,15.75
2019-02-14T07:05:44.506Z,21.42
2019-02-14T07:06:48.715Z,21.30
2019-02-14T07:07:52.818Z,18.57
2019-02-14T07:08:56.635Z,22.37
2019-02-14T07:10:00.785Z,14.83
2019-02-14T07:11:05.023Z,12.95
2019-02-14T07:12:08.852Z,15.43
2019-02-14T07:13:12.730Z,25.55
2019-02-14T07:14:17.342Z,22.25
2019-02-14T07:15:21.538Z,19.77
2019-02-14T07:16:25.643Z,18.98
2019-02-14T07:17:29.963Z,17.85
2019-02-14T07:18:33.841Z,22.70
2019-02-14T07:19:37.979Z,24.72
2019-02-14T07:20:41.863Z,23.83
2019-02-14T07:21:45.673Z,20.88
2019-02-14T07:22:49.754Z,17.42
2019-02-14T07:23:53.571Z,17.87
2019-02-14T07:24:57.661Z,18.35
2019-02-14T07:26:01.464Z,17.70
2019-02-14T07:27:05.425Z,16.93
2019-02-14T07:28:09.329Z,16.30
2019-02-14T07:29:13.148Z,17.65
2019-02-14T07:30:19.119Z,16.82
2019-02-14T07:31:22.949Z,18.35
2019-02-14T07:32:27.299Z,17.32
2019-02-14T07:33:31.971Z,17.07
2019-02-14T07:34:35.786Z,18.32
2019-02-14T07:35:40.220Z,15.05
2019-02-14T07:36:44.447Z,13.78
2019-02-14T07:37:48.598Z,15.08
2019-02-14T07:38:52.491Z,15.83
2019-02-14T07:39:56.664Z,14.47
2019-02-14T07:41:00.487Z,15.58
2019-02-14T07:42:04.375Z,15.90
2019-02-14T07:43:08.641Z,15.75
2019-02-14T07:44:12.848Z,15.60
2019-02-14T07:45:17.133Z,14.95
2019-02-14T07:46:22.720Z,16.57
2019-02-14T07:47:26.895Z,15.10
2019-02-14T07:48:31.715Z,15.25
2019-02-14T07:49:35.524Z,15.28
2019-02-14T07:50:39.671Z,17.17
2019-02-14T07:51:43.684Z,17.27
2019-02-14T07:52:47.504Z,17.10
2019-02-14T07:53:51.820Z,16.70
2019-02-14T07:54:55.660Z,15.90
2019-02-14T07:55:59.826Z,15.45
2019-02-14T07:57:04.235Z,13.95
2019-02-14T07:58:08.138Z,13.75
2019-02-14T07:59:11.954Z,13.48
2019-02-14T08:00:15.954Z,13.95
2019-02-14T08:01:19.762Z,13.85
2019-02-14T08:02:23.657Z,13.28
2019-02-14T08:03:27.494Z,13.32
2019-02-14T08:04:31.431Z,13.65
2019-02-14T08:05:35.266Z,14.00
2019-02-14T08:06:39.542Z,14.18
2019-02-14T08:07:43.932Z,14.20
2019-02-14T08:08:48.060Z,12.53
2019-02-14T08:09:51.923Z,13.22
2019-02-14T08:10:56.143Z,13.35
2019-02-14T08:12:00.209Z,13.35
2019-02-14T08:13:04.201Z,15.38
2019-02-14T08:14:08.490Z,17.37
2019-02-14T08:15:13.835Z,16.77
2019-02-14T08:16:17.715Z,14.87
2019-02-14T08:17:21.524Z,16.85
2019-02-14T08:18:25.377Z,15.65
2019-02-14T08:19:29.183Z,16.32
2019-02-14T08:20:32.993Z,14.40
2019-02-14T08:21:37.122Z,14.43
2019-02-14T08:22:41.183Z,17.17
2019-02-14T08:23:45.012Z,15.30
2019-02-14T08:24:49.093Z,16.23
2019-02-14T08:25:52.885Z,13.75
2019-02-14T08:26:57.016Z,13.80
2019-02-14T08:28:01.343Z,13.13
2019-02-14T08:29:05.485Z,13.50
2019-02-14T08:30:11.562Z,13.48
2019-02-14T08:31:15.372Z,13.60
2019-02-14T08:32:19.950Z,12.45
2019-02-14T08:33:23.750Z,13.50
2019-02-14T08:34:27.890Z,13.03
2019-02-14T08:35:31.707Z,14.47
2019-02-14T08:36:35.528Z,15.48
2019-02-14T08:37:45.734Z,15.23
2019-02-14T08:38:45.934Z,15.10
2019-02-14T08:39:50.247Z,15.53
2019-02-14T08:40:55.307Z,16.02
2019-02-14T08:41:59.443Z,17.25
2019-02-14T08:43:03.267Z,16.32
2019-02-14T08:44:07.103Z,16.67
2019-02-14T08:45:11.789Z,17.00
2019-02-14T08:46:15.854Z,17.80
2019-02-14T08:47:20.237Z,18.40
2019-02-14T08:48:24.288Z,17.57
2019-02-14T08:49:28.154Z,19.27
2019-02-14T08:50:31.986Z,16.82
2019-02-14T08:51:35.799Z,18.15
2019-02-14T08:52:39.784Z,17.75
2019-02-14T08:53:43.774Z,19.50
2019-02-14T08:54:47.608Z,16.40
2019-02-14T08:55:51.475Z,16.35
2019-02-14T08:56:55.287Z,13.58
2019-02-14T08:57:59.102Z,17.10
2019-02-14T08:59:03.163Z,16.25
2019-02-14T09:00:08.495Z,15.53
2019-02-14T09:01:12.379Z,16.52
2019-02-14T09:02:16.647Z,14.78
2019-02-14T09:03:20.796Z,15.20
2019-02-14T09:04:24.604Z,15.38
2019-02-14T09:05:28.767Z,14.63
2019-02-14T09:06:32.576Z,15.00
2019-02-14T09:07:36.789Z,15.58
2019-02-14T09:08:40.995Z,13.78
2019-02-14T09:09:44.815Z,14.75
2019-02-14T09:10:49.130Z,13.58
2019-02-14T09:11:52.950Z,14.18
2019-02-14T09:12:57.062Z,14.80
2019-02-14T09:14:01.212Z,14.55
2019-02-14T09:15:05.730Z,12.98
2019-02-14T09:16:09.537Z,13.28
2019-02-14T09:17:13.357Z,12.98
2019-02-14T09:18:17.167Z,9.90
2019-02-14T09:19:21.316Z,11.55
2019-02-14T09:20:25.137Z,11.60
2019-02-14T09:21:28.951Z,10.53
2019-02-14T09:22:33.113Z,11.03
2019-02-14T09:23:37.002Z,11.55
2019-02-14T09:24:41.111Z,9.78
2019-02-14T09:25:44.930Z,8.35
2019-02-14T09:26:48.932Z,9.28
2019-02-14T09:27:53.812Z,10.43
2019-02-14T09:28:57.724Z,7.75
2019-02-14T09:30:01.789Z,8.95
2019-02-14T09:31:05.720Z,8.88
2019-02-14T09:32:09.552Z,10.23
2019-02-14T09:33:13.365Z,11.12
2019-02-14T09:34:17.844Z,10.35
2019-02-14T09:35:22.221Z,12.50
2019-02-14T09:36:26.030Z,11.28
2019-02-14T09:37:29.847Z,10.10
2019-02-14T09:38:33.726Z,10.63
2019-02-14T09:39:41.019Z,11.18
2019-02-14T09:40:43.254Z,10.93
2019-02-14T09:41:47.483Z,12.00
2019-02-14T09:42:51.292Z,11.35
2019-02-14T09:43:55.112Z,11.20
2019-02-14T09:44:58.938Z,10.98
2019-02-14T09:46:02.784Z,9.98
2019-02-14T09:47:06.741Z,12.03
2019-02-14T09:48:10.565Z,9.53
2019-02-14T09:49:14.439Z,10.75
2019-02-14T09:50:18.531Z,11.45
2019-02-14T09:51:22.476Z,10.82
2019-02-14T09:52:26.350Z,11.18
2019-02-14T09:53:30.152Z,11.40
2019-02-14T09:54:33.975Z,12.03
2019-02-14T09:55:38.363Z,10.93
2019-02-14T09:56:42.209Z,11.80
2019-02-14T09:57:46.084Z,9.43
2019-02-14T09:58:49.911Z,10.53
2019-02-14T09:59:53.728Z,11.88
2019-02-14T10:00:57.561Z,11.43
2019-02-14T10:02:01.377Z,12.18
2019-02-14T10:03:05.660Z,10.63
2019-02-14T10:04:09.464Z,10.82
2019-02-14T10:05:13.733Z,11.73
2019-02-14T10:06:17.793Z,12.18
2019-02-14T10:07:21.676Z,11.70
2019-02-14T10:08:25.506Z,11.38
2019-02-14T10:09:29.337Z,12.35
2019-02-14T10:10:33.179Z,12.03
2019-02-14T10:11:37.247Z,12.70
2019-02-14T10:12:41.052Z,12.95
2019-02-14T10:13:45.187Z,12.10
2019-02-14T10:14:49.067Z,11.73
2019-02-14T10:15:52.879Z,11.63
2019-02-14T10:16:56.943Z,12.00
2019-02-14T10:18:01.018Z,10.60
2019-02-14T10:19:04.895Z,10.85
2019-02-14T10:20:10.644Z,12.03
2019-02-14T10:21:14.449Z,10.53
2019-02-14T10:22:18.281Z,13.53
2019-02-14T10:23:22.338Z,10.75
2019-02-14T10:24:26.226Z,10.98
2019-02-14T10:25:30.034Z,9.13
2019-02-14T10:26:33.859Z,10.30
2019-02-14T10:27:37.905Z,8.88
2019-02-14T10:28:42.035Z,8.60
2019-02-14T10:29:45.842Z,8.68
2019-02-14T10:30:49.808Z,9.80
2019-02-14T10:31:53.647Z,9.70
2019-02-14T10:32:57.461Z,9.65
2019-02-14T10:34:01.284Z,10.13
2019-02-14T10:35:05.886Z,10.10
2019-02-14T10:36:09.767Z,9.90
2019-02-14T10:37:13.851Z,11.55
2019-02-14T10:38:22.295Z,9.25
2019-02-14T10:39:23.630Z,8.15
2019-02-14T10:40:27.513Z,10.48
2019-02-14T10:41:31.398Z,8.48
2019-02-14T10:42:35.232Z,12.07
2019-02-14T10:43:39.046Z,10.43
2019-02-14T10:44:42.862Z,8.48
2019-02-14T10:45:46.671Z,5.92
2019-02-14T10:46:50.479Z,7.20
2019-02-14T10:47:54.818Z,7.62
2019-02-14T10:48:58.626Z,10.25
2019-02-14T10:50:02.823Z,8.70
2019-02-14T10:51:06.949Z,11.30
2019-02-14T10:52:10.778Z,8.85
2019-02-14T10:53:15.044Z,10.30
2019-02-14T10:54:18.920Z,10.88
2019-02-14T10:55:22.809Z,9.78
2019-02-14T10:56:26.620Z,10.03
2019-02-14T10:57:30.728Z,10.65
2019-02-14T10:58:34.539Z,9.78
2019-02-14T10:59:38.352Z,7.92
2019-02-14T11:00:42.302Z,8.48
2019-02-14T11:01:46.181Z,9.33
2019-02-14T11:02:51.056Z,9.63
2019-02-14T11:03:55.027Z,12.18
2019-02-14T11:04:59.149Z,11.00
2019-02-14T11:06:02.964Z,8.90
2019-02-14T11:07:06.853Z,10.15
2019-02-14T11:08:11.042Z,10.43
2019-02-14T11:09:14.997Z,9.08
2019-02-14T11:10:18.958Z,7.97
2019-02-14T11:11:23.254Z,10.25
2019-02-14T11:12:27.149Z,6.45
2019-02-14T11:13:30.974Z,8.88
2019-02-14T11:14:35.148Z,11.05
2019-02-14T11:15:39.033Z,9.85
2019-02-14T11:16:43.305Z,9.45
2019-02-14T11:17:48.957Z,9.15
2019-02-14T11:18:52.884Z,10.48
2019-02-14T11:19:56.879Z,12.18
2019-02-14T11:21:00.854Z,41.28
2019-02-14T11:22:05.309Z,32.58
2019-02-14T11:23:09.132Z,62.13
2019-02-14T11:24:13.024Z,19.52
2019-02-14T11:25:20.078Z,16.25
2019-02-14T11:26:24.307Z,27.87
2019-02-14T11:27:28.116Z,13.65
2019-02-14T11:28:31.941Z,22.50
2019-02-14T11:29:36.078Z,15.95
2019-02-14T11:30:40.216Z,22.15
2019-02-14T11:31:44.208Z,13.40
2019-02-14T11:32:48.116Z,12.43
2019-02-14T11:33:52.590Z,7.15
2019-02-14T11:34:56.477Z,9.00
2019-02-14T11:36:00.288Z,8.68
2019-02-14T11:37:04.175Z,8.93
2019-02-14T11:38:08.393Z,7.35
2019-02-14T11:39:12.500Z,10.00
2019-02-14T11:40:16.460Z,9.90
2019-02-14T11:41:20.318Z,6.83
2019-02-14T11:42:24.125Z,8.28
2019-02-14T11:43:28.255Z,8.28
2019-02-14T11:44:39.579Z,8.40
2019-02-14T11:45:37.717Z,6.40
2019-02-14T11:46:41.605Z,8.15
2019-02-14T11:47:45.933Z,9.35
2019-02-14T11:48:49.754Z,9.08
2019-02-14T11:49:53.634Z,9.70
2019-02-14T11:50:57.881Z,9.80
2019-02-14T11:52:01.686Z,8.45
2019-02-14T11:53:13.826Z,8.03
2019-02-14T11:54:11.483Z,8.80
2019-02-14T11:55:15.613Z,8.35
2019-02-14T11:56:19.612Z,6.75
2019-02-14T11:57:23.742Z,6.83
2019-02-14T11:58:28.061Z,8.98
2019-02-14T11:59:32.123Z,20.45
2019-02-14T12:00:36.430Z,10.55
2019-02-14T12:01:40.318Z,11.35
2019-02-14T12:02:44.135Z,11.57
2019-02-14T12:03:47.964Z,15.45
2019-02-14T12:04:53.593Z,16.12
2019-02-14T12:05:57.476Z,12.68
2019-02-14T12:07:01.291Z,12.93
2019-02-14T12:08:05.541Z,15.85
2019-02-14T12:09:09.440Z,16.62
2019-02-14T12:10:14.014Z,17.27
2019-02-14T12:11:17.811Z,32.48
2019-02-14T12:12:22.980Z,30.05
2019-02-14T12:13:27.549Z,17.62
2019-02-14T12:14:31.476Z,13.03
2019-02-14T12:15:35.538Z,9.43
2019-02-14T12:16:39.439Z,10.20
2019-02-14T12:17:43.327Z,11.65
2019-02-14T12:18:47.407Z,11.85
2019-02-14T12:19:51.375Z,14.63
2019-02-14T12:20:55.267Z,12.68
2019-02-14T12:21:59.215Z,15.15
2019-02-14T12:23:03.024Z,31.80
2019-02-14T12:24:07.243Z,15.88
2019-02-14T12:25:12.319Z,18.25
2019-02-14T12:26:16.132Z,31.50
2019-02-14T12:27:20.216Z,19.82
2019-02-14T12:28:24.027Z,24.00
2019-02-14T12:29:27.857Z,17.55
2019-02-14T12:30:31.820Z,20.80
2019-02-14T12:31:35.648Z,31.35
2019-02-14T12:32:39.535Z,22.50
2019-02-14T12:33:43.357Z,12.03
2019-02-14T12:34:47.460Z,15.23
2019-02-14T12:35:51.271Z,18.55
2019-02-14T12:36:55.087Z,11.55
2019-02-14T12:37:59.649Z,12.55
2019-02-14T12:39:09.772Z,20.65
2019-02-14T12:40:11.484Z,19.07
2019-02-14T12:41:15.294Z,13.18
2019-02-14T12:42:19.211Z,12.80
2019-02-14T12:43:23.237Z,9.90
2019-02-14T12:44:27.406Z,14.20
2019-02-14T12:45:31.710Z,13.50
2019-02-14T12:46:35.814Z,10.90
2019-02-14T12:47:39.627Z,8.95
2019-02-14T12:48:43.499Z,9.18
2019-02-14T12:49:47.323Z,10.10
2019-02-14T12:50:51.386Z,10.10
2019-02-14T12:51:55.924Z,11.28
2019-02-14T12:52:59.734Z,10.13
2019-02-14T12:54:03.574Z,19.32
2019-02-14T12:55:07.615Z,10.78
2019-02-14T12:56:12.231Z,13.65
2019-02-14T12:57:16.045Z,9.40
2019-02-14T12:58:20.130Z,11.70
2019-02-14T12:59:24.051Z,11.18
2019-02-14T13:00:28.272Z,11.95
2019-02-14T13:01:32.157Z,10.65
2019-02-14T13:02:36.286Z,10.25
2019-02-14T13:03:40.340Z,10.50
2019-02-14T13:04:44.155Z,10.75
2019-02-14T13:05:48.476Z,16.07
2019-02-14T13:06:52.603Z,10.58
2019-02-14T13:07:56.483Z,10.15
2019-02-14T13:09:00.530Z,9.95
2019-02-14T13:10:04.924Z,8.20
2019-02-14T13:11:08.897Z,8.55
2019-02-14T13:12:12.706Z,9.35
2019-02-14T13:13:16.826Z,9.43
2019-02-14T13:14:20.642Z,10.63
2019-02-14T13:15:24.521Z,8.35
2019-02-14T13:16:28.354Z,8.65
2019-02-14T13:17:32.149Z,9.13
2019-02-14T13:18:35.944Z,9.30
2019-02-14T13:19:39.746Z,9.20
2019-02-14T13:20:43.825Z,8.48
2019-02-14T13:21:47.959Z,8.28
2019-02-14T13:22:51.766Z,8.95
2019-02-14T13:23:55.897Z,9.40
2019-02-14T13:24:59.949Z,9.65
2019-02-14T13:26:04.255Z,9.33
2019-02-14T13:27:08.134Z,8.98
2019-02-14T13:28:12.666Z,9.05
2019-02-14T13:29:16.572Z,9.58
2019-02-14T13:30:22.102Z,9.03
2019-02-14T13:31:32.098Z,9.13
2019-02-14T13:32:32.191Z,9.68
2019-02-14T13:33:36.430Z,8.68
2019-02-14T13:34:41.180Z,7.65
2019-02-14T13:35:45.246Z,9.50
2019-02-14T13:36:49.150Z,10.18
2019-02-14T13:37:53.048Z,8.05
2019-02-14T13:38:57.163Z,10.65
2019-02-14T13:40:01.013Z,11.88
2019-02-14T13:41:04.987Z,15.83
2019-02-14T13:42:09.145Z,14.73
2019-02-14T13:43:13.037Z,11.12
2019-02-14T13:44:17.319Z,9.70
2019-02-14T13:45:22.722Z,9.28
2019-02-14T13:46:26.555Z,9.53
2019-02-14T13:47:30.544Z,9.58
2019-02-14T13:48:34.451Z,10.13
2019-02-14T13:49:38.262Z,10.25
2019-02-14T13:50:42.082Z,10.35
2019-02-14T13:51:46.705Z,9.80
2019-02-14T13:52:50.940Z,10.70
2019-02-14T13:53:54.985Z,13.15
2019-02-14T13:54:59.119Z,10.90
2019-02-14T13:56:02.941Z,10.20
2019-02-14T13:57:06.850Z,10.80
2019-02-14T13:58:10.742Z,10.80